createdAt,value
2018-02-15T00:00:39.144Z,37.80
2018-02-15T00:01:39.065Z,38.10
2018-02-15T00:02:38.973Z,38.40
2018-02-15T00:03:38.886Z,41.50
2018-02-15T00:04:38.840Z,39.30
2018-02-15T00:05:38.710Z,38.90
2018-02-15T00:06:38.623Z,39.60
2018-02-15T00:07:38.544Z,38.90
2018-02-15T00:08:38.462Z,39.30
2018-02-15T00:09:38.403Z,36.10
2018-02-15T00:10:38.285Z,37.30
2018-02-15T00:11:38.209Z,38.40
2018-02-15T00:12:38.117Z,37.50
2018-02-15T00:13:38.023Z,37.60
2018-02-15T00:14:37.936Z,36.60
2018-02-15T00:15:37.849Z,37.00
2018-02-15T00:16:37.757Z,38.10
2018-02-15T00:17:37.678Z,35.30
2018-02-15T00:18:37.593Z,37.30
2018-02-15T00:19:37.510Z,38.00
2018-02-15T00:20:37.416Z,36.70
2018-02-15T00:21:37.335Z,39.20
2018-02-15T00:22:37.268Z,38.50
2018-02-15T00:23:37.168Z,37.60
2018-02-15T00:24:37.074Z,40.40
2018-02-15T00:25:36.990Z,40.60
2018-02-15T00:26:36.898Z,42.30
2018-02-15T00:27:36.812Z,41.80
2018-02-15T00:28:36.732Z,41.90
2018-02-15T00:29:36.636Z,42.20
2018-02-15T00:30:36.553Z,41.00
2018-02-15T00:31:36.465Z,40.90
2018-02-15T00:32:36.386Z,41.50
2018-02-15T00:33:36.306Z,38.50
2018-02-15T00:34:36.209Z,40.70
2018-02-15T00:35:36.123Z,40.20
2018-02-15T00:36:36.039Z,37.50
2018-02-15T00:37:35.957Z,38.40
2018-02-15T00:38:35.864Z,38.30
2018-02-15T00:39:35.789Z,38.30
2018-02-15T00:40:35.685Z,40.10
2018-02-15T00:41:35.608Z,37.00
2018-02-15T00:42:35.512Z,38.60
2018-02-15T00:43:35.429Z,40.20
2018-02-15T00:44:35.360Z,38.50
2018-02-15T00:45:35.268Z,40.80
2018-02-15T00:46:35.178Z,40.40
2018-02-15T00:47:35.090Z,39.40
2018-02-15T00:48:35.004Z,38.20
2018-02-15T00:49:34.917Z,37.10
2018-02-15T00:50:34.837Z,36.00
2018-02-15T00:51:34.739Z,38.20
2018-02-15T00:52:34.672Z,35.20
2018-02-15T00:53:34.572Z,34.30
2018-02-15T00:54:34.492Z,35.70
2018-02-15T00:55:34.393Z,34.30
2018-02-15T00:56:34.315Z,35.00
2018-02-15T00:57:34.243Z,35.70
2018-02-15T00:58:34.137Z,35.10
2018-02-15T00:59:34.050Z,36.80
2018-02-15T01:00:33.972Z,35.10
2018-02-15T01:01:33.889Z,33.50
2018-02-15T01:02:33.794Z,30.80
2018-02-15T01:03:33.708Z,35.00
2018-02-15T01:04:33.616Z,34.50
2018-02-15T01:05:33.534Z,34.00
2018-02-15T01:06:33.439Z,33.70
2018-02-15T01:07:33.369Z,36.90
2018-02-15T01:08:33.293Z,34.60
2018-02-15T01:09:33.192Z,36.00
2018-02-15T01:10:33.112Z,36.90
2018-02-15T01:11:33.020Z,38.20
2018-02-15T01:12:32.932Z,39.50
2018-02-15T01:13:32.842Z,39.80
2018-02-15T01:14:32.774Z,38.10
2018-02-15T01:15:32.670Z,39.10
2018-02-15T01:16:32.579Z,38.80
2018-02-15T01:17:32.503Z,38.70
2018-02-15T01:18:32.417Z,33.00
2018-02-15T01:19:32.327Z,39.20
2018-02-15T01:20:32.244Z,39.70
2018-02-15T01:21:32.155Z,38.00
2018-02-15T01:22:32.071Z,40.20
2018-02-15T01:23:31.985Z,41.20
2018-02-15T01:24:31.895Z,42.20
2018-02-15T01:25:31.810Z,41.90
2018-02-15T01:26:31.718Z,40.90
2018-02-15T01:27:31.642Z,42.10
2018-02-15T01:28:31.573Z,40.70
2018-02-15T01:29:31.465Z,42.80
2018-02-15T01:30:31.384Z,41.60
2018-02-15T01:31:31.301Z,41.40
2018-02-15T01:32:31.206Z,45.20
2018-02-15T01:33:31.122Z,41.50
2018-02-15T01:34:31.036Z,44.60
2018-02-15T01:35:30.944Z,43.30
2018-02-15T01:36:30.862Z,43.60
2018-02-15T01:37:30.772Z,42.60
2018-02-15T01:38:30.688Z,41.00
2018-02-15T01:39:30.597Z,44.10
2018-02-15T01:40:30.516Z,43.90
2018-02-15T01:41:30.441Z,42.80
2018-02-15T01:42:30.350Z,44.70
2018-02-15T01:43:30.261Z,41.60
2018-02-15T01:44:30.175Z,45.40
2018-02-15T01:45:30.084Z,43.80
2018-02-15T01:46:30.001Z,43.90
2018-02-15T01:47:29.914Z,44.60
2018-02-15T01:48:29.820Z,44.60
2018-02-15T01:49:29.735Z,45.70
2018-02-15T01:50:29.650Z,43.70
2018-02-15T01:51:29.568Z,45.70
2018-02-15T01:52:29.485Z,44.50
2018-02-15T01:53:29.395Z,45.50
2018-02-15T01:54:29.312Z,45.90
2018-02-15T01:55:29.227Z,45.60
2018-02-15T01:56:29.134Z,46.60
2018-02-15T01:57:29.053Z,47.90
2018-02-15T01:58:28.972Z,44.90
2018-02-15T01:59:28.870Z,44.60
2018-02-15T02:00:28.790Z,45.70
2018-02-15T02:01:28.694Z,47.00
2018-02-15T02:02:28.623Z,45.70
2018-02-15T02:03:28.537Z,45.50
2018-02-15T02:04:28.444Z,43.00
2018-02-15T02:05:28.375Z,45.60
2018-02-15T02:06:28.274Z,46.30
2018-02-15T02:07:28.186Z,46.50
2018-02-15T02:08:28.100Z,45.30
2018-02-15T02:09:28.020Z,46.70
2018-02-15T02:10:27.943Z,44.90
2018-02-15T02:11:27.841Z,44.90
2018-02-15T02:12:27.746Z,46.40
2018-02-15T02:13:27.677Z,44.10
2018-02-15T02:14:27.588Z,43.00
2018-02-15T02:15:27.501Z,39.20
2018-02-15T02:16:27.416Z,37.90
2018-02-15T02:17:27.325Z,32.90
2018-02-15T02:18:27.239Z,36.80
2018-02-15T02:19:27.150Z,36.50
2018-02-15T02:20:27.070Z,33.80
2018-02-15T02:21:27.003Z,31.10
2018-02-15T02:22:26.887Z,34.40
2018-02-15T02:23:26.822Z,33.10
2018-02-15T02:24:26.728Z,34.20
2018-02-15T02:25:26.635Z,35.50
2018-02-15T02:26:26.549Z,31.10
2018-02-15T02:27:26.475Z,35.00
2018-02-15T02:28:26.377Z,36.30
2018-02-15T02:29:26.301Z,36.50
2018-02-15T02:30:26.229Z,35.80
2018-02-15T02:31:26.123Z,35.70
2018-02-15T02:32:26.031Z,35.50
2018-02-15T02:33:25.952Z,35.40
2018-02-15T02:34:25.856Z,34.70
2018-02-15T02:35:25.783Z,35.30
2018-02-15T02:36:25.699Z,34.30
2018-02-15T02:37:25.606Z,36.00
2018-02-15T02:38:25.522Z,33.10
2018-02-15T02:39:25.423Z,33.80
2018-02-15T02:40:25.347Z,36.60
2018-02-15T02:41:25.252Z,36.40
2018-02-15T02:42:25.172Z,37.00
2018-02-15T02:43:25.080Z,35.20
2018-02-15T02:44:25.000Z,37.80
2018-02-15T02:45:24.908Z,36.00
2018-02-15T02:46:24.836Z,38.00
2018-02-15T02:47:24.745Z,37.00
2018-02-15T02:48:24.655Z,36.60
2018-02-15T02:49:24.569Z,35.90
2018-02-15T02:50:24.483Z,35.60
2018-02-15T02:51:24.405Z,36.80
2018-02-15T02:52:24.300Z,36.70
2018-02-15T02:53:24.234Z,38.20
2018-02-15T02:54:24.130Z,36.50
2018-02-15T02:55:24.042Z,37.30
2018-02-15T02:56:23.958Z,34.50
2018-02-15T02:57:23.881Z,35.50
2018-02-15T02:58:23.794Z,34.90
2018-02-15T02:59:23.704Z,33.90
2018-02-15T03:00:23.630Z,35.30
2018-02-15T03:01:23.530Z,35.60
2018-02-15T03:02:23.451Z,34.00
2018-02-15T03:03:23.351Z,36.50
2018-02-15T03:04:23.269Z,35.20
2018-02-15T03:05:23.178Z,37.10
2018-02-15T03:06:23.112Z,38.90
2018-02-15T03:07:23.021Z,40.40
2018-02-15T03:08:22.928Z,37.60
2018-02-15T03:09:22.855Z,38.70
2018-02-15T03:10:22.754Z,37.20
2018-02-15T03:11:22.664Z,38.70
2018-02-15T03:12:22.579Z,37.20
2018-02-15T03:13:22.493Z,34.10
2018-02-15T03:14:22.407Z,33.80
2018-02-15T03:15:22.323Z,32.90
2018-02-15T03:16:22.262Z,34.50
2018-02-15T03:17:22.152Z,35.10
2018-02-15T03:18:22.069Z,35.40
2018-02-15T03:19:21.988Z,34.20
2018-02-15T03:20:21.905Z,32.80
2018-02-15T03:21:21.810Z,35.20
2018-02-15T03:22:21.722Z,34.60
2018-02-15T03:23:21.637Z,35.00
2018-02-15T03:24:21.558Z,33.70
2018-02-15T03:25:21.461Z,35.30
2018-02-15T03:26:21.384Z,36.20
2018-02-15T03:27:21.314Z,35.70
2018-02-15T03:28:21.206Z,35.10
2018-02-15T03:29:21.124Z,34.80
2018-02-15T03:30:21.044Z,36.20
2018-02-15T03:31:20.956Z,35.80
2018-02-15T03:32:20.860Z,36.80
2018-02-15T03:33:20.770Z,37.20
2018-02-15T03:34:20.688Z,37.40
2018-02-15T03:35:20.610Z,37.00
2018-02-15T03:36:20.539Z,36.50
2018-02-15T03:37:20.481Z,35.00
2018-02-15T03:38:20.354Z,35.90
2018-02-15T03:39:20.261Z,37.00
2018-02-15T03:40:20.172Z,32.70
2018-02-15T03:41:20.082Z,30.80
2018-02-15T03:42:20.011Z,30.10
2018-02-15T03:43:19.910Z,32.20
2018-02-15T03:44:19.824Z,32.30
2018-02-15T03:45:19.741Z,30.10
2018-02-15T03:46:19.658Z,30.30
2018-02-15T03:47:19.569Z,33.70
2018-02-15T03:48:19.484Z,31.00
2018-02-15T03:49:19.394Z,29.30
2018-02-15T03:50:19.310Z,32.00
2018-02-15T03:51:19.236Z,32.50
2018-02-15T03:52:19.130Z,31.70
2018-02-15T03:53:19.054Z,30.90
2018-02-15T03:54:18.981Z,31.70
2018-02-15T03:55:18.872Z,31.90
2018-02-15T03:56:18.801Z,30.30
2018-02-15T03:57:18.705Z,31.40
2018-02-15T03:58:18.612Z,31.90
2018-02-15T03:59:18.538Z,34.30
2018-02-15T04:00:18.447Z,34.00
2018-02-15T04:01:18.368Z,34.60
2018-02-15T04:02:18.274Z,33.80
2018-02-15T04:03:18.188Z,34.50
2018-02-15T04:04:18.112Z,34.10
2018-02-15T04:05:18.013Z,33.90
2018-02-15T04:06:17.926Z,32.30
2018-02-15T04:07:17.856Z,35.60
2018-02-15T04:08:17.748Z,33.60
2018-02-15T04:09:17.663Z,34.80
2018-02-15T04:10:17.587Z,34.10
2018-02-15T04:11:17.536Z,36.10
2018-02-15T04:12:17.418Z,35.10
2018-02-15T04:13:17.323Z,35.10
2018-02-15T04:14:17.241Z,35.70
2018-02-15T04:15:17.160Z,37.40
2018-02-15T04:16:17.062Z,35.70
2018-02-15T04:17:16.979Z,35.90
2018-02-15T04:18:16.884Z,36.90
2018-02-15T04:19:16.808Z,35.80
2018-02-15T04:20:16.714Z,36.00
2018-02-15T04:21:16.635Z,35.10
2018-02-15T04:22:16.544Z,34.00
2018-02-15T04:23:16.469Z,32.30
2018-02-15T04:24:16.377Z,31.40
2018-02-15T04:25:16.288Z,32.10
2018-02-15T04:26:16.208Z,32.10
2018-02-15T04:27:16.112Z,32.00
2018-02-15T04:28:16.027Z,31.50
2018-02-15T04:29:15.936Z,32.20
2018-02-15T04:30:15.856Z,30.50
2018-02-15T04:31:15.791Z,31.60
2018-02-15T04:32:15.688Z,30.30
2018-02-15T04:33:15.619Z,32.40
2018-02-15T04:34:15.510Z,32.50
2018-02-15T04:35:15.428Z,31.90
2018-02-15T04:36:15.339Z,30.80
2018-02-15T04:37:15.260Z,29.10
2018-02-15T04:38:15.164Z,31.20
2018-02-15T04:39:15.079Z,29.40
2018-02-15T04:40:14.986Z,30.40
2018-02-15T04:41:14.916Z,31.80
2018-02-15T04:42:14.815Z,28.00
2018-02-15T04:43:14.732Z,31.20
2018-02-15T04:44:14.644Z,31.30
2018-02-15T04:45:14.562Z,30.50
2018-02-15T04:46:14.479Z,32.50
2018-02-15T04:47:14.394Z,31.20
2018-02-15T04:48:14.317Z,30.70
2018-02-15T04:49:14.221Z,28.20
2018-02-15T04:50:14.138Z,28.00
2018-02-15T04:51:14.038Z,27.60
2018-02-15T04:52:13.956Z,29.90
2018-02-15T04:53:13.866Z,29.80
2018-02-15T04:54:13.794Z,29.40
2018-02-15T04:55:13.696Z,29.50
2018-02-15T04:56:13.614Z,28.30
2018-02-15T04:57:13.541Z,28.20
2018-02-15T04:58:13.438Z,29.10
2018-02-15T04:59:13.368Z,30.20
2018-02-15T05:00:13.266Z,29.30
2018-02-15T05:01:13.180Z,30.60
2018-02-15T05:02:13.094Z,28.30
2018-02-15T05:03:13.021Z,31.20
2018-02-15T05:04:12.920Z,28.60
2018-02-15T05:05:12.831Z,31.20
2018-02-15T05:06:12.739Z,30.20
2018-02-15T05:07:12.669Z,29.60
2018-02-15T05:08:12.592Z,30.40
2018-02-15T05:09:12.495Z,31.50
2018-02-15T05:10:12.411Z,29.30
2018-02-15T05:11:12.318Z,31.70
2018-02-15T05:12:12.228Z,29.90
2018-02-15T05:13:12.145Z,29.90
2018-02-15T05:14:12.065Z,30.10
2018-02-15T05:15:11.966Z,31.30
2018-02-15T05:16:11.883Z,30.50
2018-02-15T05:17:11.791Z,30.40
2018-02-15T05:18:11.718Z,30.80
2018-02-15T05:19:11.631Z,29.10
2018-02-15T05:20:11.544Z,31.50
2018-02-15T05:21:11.472Z,26.90
2018-02-15T05:22:11.370Z,30.30
2018-02-15T05:23:11.294Z,29.30
2018-02-15T05:24:11.203Z,30.40
2018-02-15T05:25:11.122Z,30.60
2018-02-15T05:26:11.018Z,30.20
2018-02-15T05:27:10.930Z,30.30
2018-02-15T05:28:10.849Z,30.80
2018-02-15T05:29:10.766Z,29.70
2018-02-15T05:30:10.698Z,28.40
2018-02-15T05:31:10.596Z,29.70
2018-02-15T05:32:10.505Z,32.50
2018-02-15T05:33:10.423Z,29.90
2018-02-15T05:34:10.335Z,30.30
2018-02-15T05:35:10.242Z,30.60
2018-02-15T05:36:10.165Z,31.40
2018-02-15T05:37:10.072Z,30.10
2018-02-15T05:38:09.999Z,32.10
2018-02-15T05:39:09.897Z,31.00
2018-02-15T05:40:09.820Z,31.40
2018-02-15T05:41:09.740Z,33.00
2018-02-15T05:42:09.641Z,31.20
2018-02-15T05:43:09.556Z,30.80
2018-02-15T05:44:09.471Z,32.40
2018-02-15T05:45:09.383Z,31.10
2018-02-15T05:46:09.300Z,31.20
2018-02-15T05:47:09.212Z,31.10
2018-02-15T05:48:09.120Z,30.40
2018-02-15T05:49:09.051Z,30.80
2018-02-15T05:50:08.944Z,31.90
2018-02-15T05:51:08.867Z,31.20
2018-02-15T05:52:08.801Z,27.30
2018-02-15T05:53:08.696Z,31.50
2018-02-15T05:54:08.617Z,31.00
2018-02-15T05:55:08.525Z,31.50
2018-02-15T05:56:08.449Z,29.70
2018-02-15T05:57:08.349Z,31.90
2018-02-15T05:58:08.260Z,30.80
2018-02-15T05:59:08.173Z,32.10
2018-02-15T06:00:08.099Z,31.60
2018-02-15T06:01:08.008Z,28.30
2018-02-15T06:02:07.922Z,31.10
2018-02-15T06:03:07.836Z,31.60
2018-02-15T06:04:07.750Z,31.60
2018-02-15T06:05:07.666Z,31.40
2018-02-15T06:06:07.572Z,27.80
2018-02-15T06:07:07.488Z,29.20
2018-02-15T06:08:07.403Z,31.30
2018-02-15T06:09:07.320Z,30.30
2018-02-15T06:10:07.243Z,30.70
2018-02-15T06:11:07.148Z,30.40
2018-02-15T06:12:07.070Z,30.30
2018-02-15T06:13:06.977Z,32.10
2018-02-15T06:14:06.889Z,30.80
2018-02-15T06:15:06.795Z,33.00
2018-02-15T06:16:06.712Z,32.70
2018-02-15T06:17:06.634Z,27.00
2018-02-15T06:18:06.542Z,32.40
2018-02-15T06:19:06.455Z,33.90
2018-02-15T06:20:06.363Z,31.90
2018-02-15T06:21:06.276Z,31.10
2018-02-15T06:22:06.190Z,32.50
2018-02-15T06:23:06.113Z,30.90
2018-02-15T06:24:06.026Z,33.00
2018-02-15T06:25:05.937Z,33.90
2018-02-15T06:26:05.852Z,33.10
2018-02-15T06:27:05.777Z,32.30
2018-02-15T06:28:05.673Z,33.80
2018-02-15T06:29:05.590Z,35.20
2018-02-15T06:30:05.503Z,32.90
2018-02-15T06:31:05.424Z,34.70
2018-02-15T06:32:05.332Z,33.20
2018-02-15T06:33:05.256Z,33.50
2018-02-15T06:34:05.170Z,34.30
2018-02-15T06:35:05.081Z,32.30
2018-02-15T06:36:04.988Z,33.00
2018-02-15T06:37:04.906Z,33.50
2018-02-15T06:38:04.821Z,32.20
2018-02-15T06:39:04.736Z,30.80
2018-02-15T06:40:04.646Z,32.40
2018-02-15T06:41:04.551Z,30.90
2018-02-15T06:42:04.479Z,32.20
2018-02-15T06:43:04.381Z,32.60
2018-02-15T06:44:04.302Z,29.40
2018-02-15T06:45:04.222Z,31.70
2018-02-15T06:46:04.126Z,30.20
2018-02-15T06:47:04.050Z,30.00
2018-02-15T06:48:03.955Z,32.90
2018-02-15T06:49:03.863Z,34.10
2018-02-15T06:50:03.777Z,31.80
2018-02-15T06:51:03.691Z,34.50
2018-02-15T06:52:03.613Z,33.70
2018-02-15T06:53:03.584Z,34.30
2018-02-15T06:54:03.451Z,31.50
2018-02-15T06:55:03.351Z,33.80
2018-02-15T06:56:03.281Z,31.50
2018-02-15T06:57:03.178Z,30.00
2018-02-15T06:58:03.109Z,30.40
2018-02-15T06:59:03.004Z,34.60
2018-02-15T07:00:02.926Z,31.80
2018-02-15T07:01:02.845Z,35.60
2018-02-15T07:02:02.754Z,36.50
2018-02-15T07:03:02.652Z,34.60
2018-02-15T07:04:02.581Z,34.60
2018-02-15T07:05:02.557Z,34.40
2018-02-15T07:06:02.406Z,33.80
2018-02-15T07:07:02.333Z,35.10
2018-02-15T07:08:02.228Z,30.90
2018-02-15T07:09:02.149Z,34.20
2018-02-15T07:10:02.051Z,33.80
2018-02-15T07:11:01.976Z,33.20
2018-02-15T07:12:01.883Z,35.30
2018-02-15T07:13:01.804Z,34.70
2018-02-15T07:14:01.729Z,35.10
2018-02-15T07:15:01.632Z,34.40
2018-02-15T07:16:01.544Z,34.70
2018-02-15T07:17:01.461Z,35.40
2018-02-15T07:18:01.403Z,34.80
2018-02-15T07:19:01.302Z,36.00
2018-02-15T07:20:01.199Z,34.80
2018-02-15T07:21:01.102Z,35.50
2018-02-15T07:22:01.025Z,35.50
2018-02-15T07:23:00.933Z,37.50
2018-02-15T07:24:00.856Z,37.20
2018-02-15T07:25:00.783Z,36.30
2018-02-15T07:26:00.680Z,35.80
2018-02-15T07:27:00.594Z,36.30
2018-02-15T07:28:00.509Z,35.70
2018-02-15T07:29:00.438Z,36.80
2018-02-15T07:30:00.336Z,37.40
2018-02-15T07:31:00.258Z,35.60
2018-02-15T07:32:00.166Z,35.70
2018-02-15T07:33:00.084Z,36.90
2018-02-15T07:33:59.996Z,37.10
2018-02-15T07:34:59.908Z,36.10
2018-02-15T07:35:59.834Z,34.20
2018-02-15T07:36:59.735Z,32.90
2018-02-15T07:37:59.644Z,33.40
2018-02-15T07:38:59.562Z,35.70
2018-02-15T07:39:59.487Z,33.40
2018-02-15T07:40:59.406Z,32.60
2018-02-15T07:41:59.316Z,31.20
2018-02-15T07:42:59.255Z,31.10
2018-02-15T07:43:59.130Z,30.90
2018-02-15T07:44:59.049Z,31.80
2018-02-15T07:45:58.959Z,30.90
2018-02-15T07:46:58.882Z,31.10
2018-02-15T07:47:58.799Z,30.60
2018-02-15T07:48:58.708Z,29.20
2018-02-15T07:49:58.636Z,30.40
2018-02-15T07:50:58.536Z,30.90
2018-02-15T07:51:58.446Z,28.90
2018-02-15T07:52:58.376Z,29.90
2018-02-15T07:53:58.281Z,27.90
2018-02-15T07:54:58.206Z,28.80
2018-02-15T07:55:58.115Z,27.10
2018-02-15T07:56:58.021Z,28.10
2018-02-15T07:57:57.947Z,30.10
2018-02-15T07:58:57.862Z,28.70
2018-02-15T07:59:57.783Z,30.90
2018-02-15T08:00:57.685Z,32.00
2018-02-15T08:01:57.595Z,32.50
2018-02-15T08:02:57.506Z,29.80
2018-02-15T08:03:57.424Z,32.00
2018-02-15T08:04:57.334Z,32.80
2018-02-15T08:05:57.261Z,30.10
2018-02-15T08:06:57.182Z,32.50
2018-02-15T08:07:57.082Z,32.50
2018-02-15T08:08:57.014Z,32.40
2018-02-15T08:09:56.908Z,29.60
2018-02-15T08:10:56.834Z,30.30
2018-02-15T08:11:56.756Z,33.50
2018-02-15T08:12:56.658Z,32.90
2018-02-15T08:13:56.575Z,31.90
2018-02-15T08:14:56.493Z,34.50
2018-02-15T08:15:56.408Z,31.30
2018-02-15T08:16:56.327Z,31.80
2018-02-15T08:17:56.246Z,30.00
2018-02-15T08:18:56.148Z,32.70
2018-02-15T08:19:56.068Z,31.90
2018-02-15T08:20:55.976Z,29.50
2018-02-15T08:21:55.891Z,31.40
2018-02-15T08:22:55.819Z,29.60
2018-02-15T08:23:55.728Z,30.30
2018-02-15T08:24:55.637Z,31.50
2018-02-15T08:25:55.562Z,29.40
2018-02-15T08:26:55.461Z,31.10
2018-02-15T08:27:55.390Z,30.00
2018-02-15T08:28:55.312Z,27.90
2018-02-15T08:29:55.216Z,31.90
2018-02-15T08:30:55.141Z,27.30
2018-02-15T08:31:55.042Z,31.70
2018-02-15T08:32:54.964Z,29.40
2018-02-15T08:33:54.877Z,31.70
2018-02-15T08:34:54.785Z,31.00
2018-02-15T08:35:54.703Z,29.20
2018-02-15T08:36:54.614Z,29.80
2018-02-15T08:37:54.542Z,29.90
2018-02-15T08:38:54.454Z,27.60
2018-02-15T08:39:54.366Z,28.30
2018-02-15T08:40:54.284Z,27.30
2018-02-15T08:41:54.187Z,27.80
2018-02-15T08:42:54.113Z,29.30
2018-02-15T08:43:54.032Z,29.50
2018-02-15T08:44:53.940Z,27.00
2018-02-15T08:45:53.871Z,28.60
2018-02-15T08:46:53.767Z,28.80
2018-02-15T08:47:53.691Z,28.10
2018-02-15T08:48:53.604Z,27.60
2018-02-15T08:49:53.520Z,27.70
2018-02-15T08:50:53.425Z,28.40
2018-02-15T08:51:53.342Z,28.20
2018-02-15T08:52:53.268Z,27.10
2018-02-15T08:53:53.183Z,26.80
2018-02-15T08:54:53.101Z,27.60
2018-02-15T08:55:53.004Z,27.20
2018-02-15T08:56:52.920Z,26.60
2018-02-15T08:57:52.844Z,26.80
2018-02-15T08:58:52.754Z,24.20
2018-02-15T08:59:52.668Z,25.60
2018-02-15T09:00:52.598Z,26.60
2018-02-15T09:01:52.493Z,26.00
2018-02-15T09:02:52.422Z,26.00
2018-02-15T09:03:52.402Z,24.30
2018-02-15T09:04:52.247Z,26.90
2018-02-15T09:05:52.157Z,24.90
2018-02-15T09:06:52.079Z,25.10
2018-02-15T09:07:52.000Z,26.40
2018-02-15T09:08:51.916Z,25.50
2018-02-15T09:09:51.820Z,27.70
2018-02-15T09:10:51.734Z,25.10
2018-02-15T09:11:51.676Z,24.80
2018-02-15T09:12:51.568Z,23.60
2018-02-15T09:13:51.501Z,25.50
2018-02-15T09:14:51.400Z,25.70
2018-02-15T09:15:51.321Z,24.20
2018-02-15T09:16:51.217Z,22.60
2018-02-15T09:17:51.147Z,24.50
2018-02-15T09:18:51.064Z,25.60
2018-02-15T09:19:50.967Z,25.20
2018-02-15T09:20:50.883Z,23.80
2018-02-15T09:21:50.804Z,20.00
2018-02-15T09:22:50.715Z,23.80
2018-02-15T09:23:50.639Z,23.70
2018-02-15T09:24:50.568Z,23.40
2018-02-15T09:25:50.477Z,22.80
2018-02-15T09:26:50.383Z,23.90
2018-02-15T09:27:50.297Z,23.00
2018-02-15T09:28:50.227Z,21.40
2018-02-15T09:29:50.131Z,23.10
2018-02-15T09:30:50.047Z,23.90
2018-02-15T09:31:49.980Z,23.40
2018-02-15T09:32:49.868Z,23.40
2018-02-15T09:33:49.801Z,24.50
2018-02-15T09:34:49.754Z,23.30
2018-02-15T09:35:49.648Z,24.00
2018-02-15T09:36:49.641Z,23.70
2018-02-15T09:37:49.457Z,23.50
2018-02-15T09:38:49.369Z,23.10
2018-02-15T09:39:49.291Z,22.60
2018-02-15T09:40:49.215Z,23.10
2018-02-15T09:41:49.128Z,23.80
2018-02-15T09:42:49.075Z,22.40
2018-02-15T09:43:48.950Z,22.60
2018-02-15T09:44:48.868Z,22.40
2018-02-15T09:45:48.803Z,23.10
2018-02-15T09:46:48.730Z,23.40
2018-02-15T09:47:48.620Z,20.30
2018-02-15T09:48:48.548Z,22.90
2018-02-15T09:49:48.445Z,22.90
2018-02-15T09:50:48.373Z,20.70
2018-02-15T09:51:48.339Z,20.50
2018-02-15T09:52:48.193Z,20.50
2018-02-15T09:53:48.138Z,19.00
2018-02-15T09:54:48.084Z,22.40
2018-02-15T09:55:47.943Z,20.40
2018-02-15T09:56:47.865Z,21.40
2018-02-15T09:57:47.775Z,21.50
2018-02-15T09:58:47.694Z,20.80
2018-02-15T09:59:47.629Z,22.40
2018-02-15T10:00:47.525Z,21.50
2018-02-15T10:01:47.441Z,20.60
2018-02-15T10:02:47.376Z,20.30
2018-02-15T10:03:47.272Z,19.90
2018-02-15T10:04:47.191Z,20.30
2018-02-15T10:05:47.103Z,20.50
2018-02-15T10:06:47.021Z,21.60
2018-02-15T10:07:46.939Z,21.10
2018-02-15T10:08:46.848Z,19.50
2018-02-15T10:09:46.776Z,22.30
2018-02-15T10:10:46.693Z,20.60
2018-02-15T10:11:46.598Z,20.90
2018-02-15T10:12:46.526Z,20.40
2018-02-15T10:13:46.437Z,20.50
2018-02-15T10:14:46.354Z,21.40
2018-02-15T10:15:46.265Z,20.90
2018-02-15T10:16:46.173Z,21.20
2018-02-15T10:17:46.102Z,19.70
2018-02-15T10:18:46.031Z,20.50
2018-02-15T10:19:45.929Z,20.70
2018-02-15T10:20:45.859Z,19.50
2018-02-15T10:21:45.776Z,17.50
2018-02-15T10:22:45.675Z,19.60
2018-02-15T10:23:45.603Z,19.00
2018-02-15T10:24:45.528Z,20.60
2018-02-15T10:25:45.429Z,20.80
2018-02-15T10:26:45.345Z,20.60
2018-02-15T10:27:45.262Z,20.00
2018-02-15T10:28:45.176Z,20.60
2018-02-15T10:29:45.089Z,20.00
2018-02-15T10:30:45.062Z,19.80
2018-02-15T10:31:44.930Z,19.20
2018-02-15T10:32:44.860Z,21.50
2018-02-15T10:33:44.756Z,19.60
2018-02-15T10:34:44.678Z,18.90
2018-02-15T10:35:44.604Z,20.10
2018-02-15T10:36:44.521Z,20.70
2018-02-15T10:37:44.426Z,18.70
2018-02-15T10:38:44.353Z,17.60
2018-02-15T10:39:44.256Z,19.20
2018-02-15T10:40:44.176Z,17.40
2018-02-15T10:41:44.096Z,19.50
2018-02-15T10:42:44.019Z,18.70
2018-02-15T10:43:43.926Z,18.20
2018-02-15T10:44:43.863Z,19.80
2018-02-15T10:45:43.752Z,18.90
2018-02-15T10:46:43.674Z,18.90
2018-02-15T10:47:43.596Z,18.30
2018-02-15T10:48:43.503Z,20.70
2018-02-15T10:49:43.440Z,19.30
2018-02-15T10:50:43.355Z,20.10
2018-02-15T10:51:43.281Z,18.20
2018-02-15T10:52:43.179Z,17.80
2018-02-15T10:53:43.100Z,18.30
2018-02-15T10:54:43.005Z,17.00
2018-02-15T10:55:42.933Z,18.20
2018-02-15T10:56:42.854Z,17.50
2018-02-15T10:57:42.760Z,18.60
2018-02-15T10:58:42.681Z,18.80
2018-02-15T10:59:42.590Z,17.80
2018-02-15T11:00:42.520Z,18.60
2018-02-15T11:01:42.427Z,19.10
2018-02-15T11:02:42.350Z,19.40
2018-02-15T11:03:42.282Z,19.00
2018-02-15T11:04:42.188Z,18.60
2018-02-15T11:05:42.109Z,17.70
2018-02-15T11:06:42.019Z,18.40
2018-02-15T11:07:41.938Z,17.80
2018-02-15T11:08:41.857Z,18.80
2018-02-15T11:09:41.779Z,18.80
2018-02-15T11:10:41.692Z,15.60
2018-02-15T11:11:41.622Z,18.70
2018-02-15T11:12:41.527Z,18.20
2018-02-15T11:13:41.448Z,17.90
2018-02-15T11:14:41.370Z,18.50
2018-02-15T11:15:41.283Z,18.40
2018-02-15T11:16:41.205Z,17.90
2018-02-15T11:17:41.133Z,16.60
2018-02-15T11:18:41.045Z,18.20
2018-02-15T11:19:40.961Z,18.10
2018-02-15T11:20:40.880Z,18.30
2018-02-15T11:21:40.798Z,18.80
2018-02-15T11:22:40.722Z,19.50
2018-02-15T11:23:40.631Z,18.20
2018-02-15T11:24:40.558Z,19.30
2018-02-15T11:25:40.485Z,19.40
2018-02-15T11:26:40.384Z,18.00
2018-02-15T11:27:40.309Z,17.70
2018-02-15T11:28:40.230Z,19.20
2018-02-15T11:29:40.150Z,17.90
2018-02-15T11:30:40.064Z,18.90
2018-02-15T11:31:39.981Z,17.40
2018-02-15T11:32:39.910Z,18.50
2018-02-15T11:33:39.820Z,17.70
2018-02-15T11:34:39.734Z,18.40
2018-02-15T11:35:39.661Z,19.20
2018-02-15T11:36:39.567Z,19.00
2018-02-15T11:37:39.489Z,19.90
2018-02-15T11:38:39.413Z,18.90
2018-02-15T11:39:39.318Z,18.20
2018-02-15T11:40:39.250Z,18.60
2018-02-15T11:41:39.156Z,17.50
2018-02-15T11:42:39.085Z,18.70
2018-02-15T11:43:39.001Z,19.00
2018-02-15T11:44:38.906Z,19.00
2018-02-15T11:45:38.835Z,18.20
2018-02-15T11:46:38.747Z,18.20
2018-02-15T11:47:38.669Z,18.80
2018-02-15T11:48:38.582Z,18.70
2018-02-15T11:49:38.536Z,18.70
2018-02-15T11:50:38.428Z,18.60
2018-02-15T11:51:38.360Z,18.60
2018-02-15T11:52:38.267Z,17.80
2018-02-15T11:53:38.181Z,19.70
2018-02-15T11:54:38.095Z,19.00
2018-02-15T11:55:38.246Z,19.40
2018-02-15T11:56:37.968Z,18.60
2018-02-15T11:57:37.863Z,18.30
2018-02-15T11:58:37.779Z,19.70
2018-02-15T11:59:37.687Z,19.80
2018-02-15T12:00:37.657Z,18.70
2018-02-15T12:01:37.520Z,18.80
2018-02-15T12:02:37.445Z,19.40
2018-02-15T12:03:37.367Z,17.80
2018-02-15T12:04:37.286Z,18.30
2018-02-15T12:05:37.213Z,17.30
2018-02-15T12:06:37.124Z,18.10
2018-02-15T12:07:37.035Z,19.00
2018-02-15T12:08:36.963Z,18.10
2018-02-15T12:09:36.884Z,17.00
2018-02-15T12:10:36.810Z,18.40
2018-02-15T12:11:36.730Z,16.00
2018-02-15T12:12:36.640Z,18.00
2018-02-15T12:13:36.562Z,15.70
2018-02-15T12:14:36.476Z,17.70
2018-02-15T12:15:36.397Z,17.90
2018-02-15T12:16:36.315Z,19.20
2018-02-15T12:17:36.235Z,18.00
2018-02-15T12:18:36.149Z,18.90
2018-02-15T12:19:36.089Z,17.70
2018-02-15T12:20:35.986Z,17.60
2018-02-15T12:21:35.924Z,19.10
2018-02-15T12:22:35.839Z,19.70
2018-02-15T12:23:35.753Z,19.30
2018-02-15T12:24:35.667Z,17.90
2018-02-15T12:25:35.585Z,16.80
2018-02-15T12:26:35.503Z,19.20
2018-02-15T12:27:35.438Z,18.40
2018-02-15T12:28:35.344Z,18.50
2018-02-15T12:29:35.271Z,17.70
2018-02-15T12:30:35.179Z,18.40
2018-02-15T12:31:35.104Z,18.50
2018-02-15T12:32:35.014Z,18.40
2018-02-15T12:33:34.937Z,19.20
2018-02-15T12:34:34.849Z,18.30
2018-02-15T12:35:34.778Z,18.10
2018-02-15T12:36:34.685Z,18.90
2018-02-15T12:37:34.614Z,19.00
2018-02-15T12:38:34.548Z,19.00
2018-02-15T12:39:34.450Z,18.90
2018-02-15T12:40:34.368Z,18.10
2018-02-15T12:41:34.292Z,19.00
2018-02-15T12:42:34.201Z,19.50
2018-02-15T12:43:34.144Z,18.70
2018-02-15T12:44:34.037Z,19.30
2018-02-15T12:45:33.969Z,19.00
2018-02-15T12:46:33.879Z,19.20
2018-02-15T12:47:33.811Z,18.70
2018-02-15T12:48:33.718Z,19.00
2018-02-15T12:49:33.639Z,19.20
2018-02-15T12:50:33.564Z,19.50
2018-02-15T12:51:33.471Z,19.20